aviador You're here:

VQPR Decoded Metar

PARO in BHUTAN
Report Time2017-05-25 01:00:00
UTC Time2017-05-25 01:15:13
Flight Rules vfr VFR
WindCalm
Visibility9999 m
Phenomena:N/A
Clouds:Few 090 Hf
Expected CloudBase > 1,200 ft AGL from Temp-Dew spread
CeilingNone
Temp11°C
Dew Point08°C (82% RH)
AAT10.5°C
QNH1021 hPa
Raw Report
VQPR 250100Z 00000KT 9999 FEW090 11/08 Q1021 NOSIG=

Extra information for VQPR:More info

Metar Taf Metar & Taf Last 4 Metars F.Rules Stats Wind Profile Meteogram Temp Stats Airport Information Weather charts Add Link Nearby VenuesMetar ALERT Operation Metar Decoded Social comments